createdAt,value
2022-09-23T00:02:39.182Z,11.67
2022-09-23T00:07:42.443Z,11.47
2022-09-23T00:12:45.419Z,11.63
2022-09-23T00:17:49.813Z,11.61
2022-09-23T00:22:53.457Z,11.55
2022-09-23T00:27:56.536Z,11.57
2022-09-23T00:33:01.051Z,11.48
2022-09-23T00:38:04.036Z,11.49
2022-09-23T00:43:07.090Z,11.51
2022-09-23T00:48:15.465Z,11.37
2022-09-23T00:53:22.640Z,11.33
2022-09-23T00:58:28.025Z,11.38
2022-09-23T01:03:32.759Z,11.34
2022-09-23T01:08:35.732Z,11.31
2022-09-23T01:13:44.509Z,11.31
2022-09-23T01:18:50.938Z,11.25
2022-09-23T01:24:13.551Z,11.25
2022-09-23T01:29:31.054Z,11.17
2022-09-23T01:34:37.684Z,11.22
2022-09-23T01:39:44.573Z,11.20
2022-09-23T01:44:52.417Z,11.20
2022-09-23T01:49:58.980Z,11.23
2022-09-23T01:55:05.775Z,11.24
2022-09-23T02:00:11.594Z,11.33
2022-09-23T02:05:18.712Z,11.34
2022-09-23T02:10:25.208Z,11.39
2022-09-23T02:15:33.850Z,11.41
2022-09-23T02:20:39.801Z,11.39
2022-09-23T02:25:45.958Z,11.35
2022-09-23T02:30:51.961Z,11.29
2022-09-23T02:35:59.187Z,11.26
2022-09-23T02:41:05.676Z,11.24
2022-09-23T02:46:08.737Z,11.24
2022-09-23T02:51:13.878Z,11.18
2022-09-23T02:56:17.374Z,11.17
2022-09-23T03:01:32.692Z,11.19
2022-09-23T03:06:43.200Z,11.23
2022-09-23T03:11:49.596Z,11.22
2022-09-23T03:16:58.316Z,11.31
2022-09-23T03:22:05.559Z,11.26
2022-09-23T03:27:13.903Z,11.17
2022-09-23T03:32:18.164Z,11.20
2022-09-23T03:37:26.322Z,11.28
2022-09-23T03:42:31.095Z,11.20
2022-09-23T03:47:34.124Z,11.21
2022-09-23T03:52:39.944Z,11.15
2022-09-23T03:57:43.036Z,11.08
2022-09-23T04:02:46.068Z,11.10
2022-09-23T04:07:51.167Z,11.10
2022-09-23T04:12:54.060Z,11.03
2022-09-23T04:17:57.018Z,11.04
2022-09-23T04:23:01.323Z,10.88
2022-09-23T04:28:04.299Z,10.91
2022-09-23T04:33:07.263Z,10.92
2022-09-23T04:38:11.818Z,10.81
2022-09-23T04:43:15.896Z,10.80
2022-09-23T04:48:19.093Z,10.89
2022-09-23T04:53:23.763Z,10.94
2022-09-23T04:58:26.745Z,10.87
2022-09-23T05:03:30.268Z,10.89
2022-09-23T05:08:34.973Z,10.79
2022-09-23T05:13:37.909Z,10.80
2022-09-23T05:18:42.862Z,10.87
2022-09-23T05:23:50.206Z,10.86
2022-09-23T05:28:53.882Z,10.94
2022-09-23T05:33:58.332Z,10.92
2022-09-23T05:39:02.752Z,10.99
2022-09-23T05:44:05.973Z,10.93
2022-09-23T05:49:10.167Z,11.00
2022-09-23T05:54:14.915Z,11.03
2022-09-23T05:59:17.930Z,11.25
2022-09-23T06:04:20.855Z,11.39
2022-09-23T06:09:25.245Z,11.55
2022-09-23T06:14:28.819Z,11.55
2022-09-23T06:19:31.873Z,11.56
2022-09-23T06:24:36.259Z,11.58
2022-09-23T06:29:39.254Z,11.55
2022-09-23T06:34:51.557Z,11.64
2022-09-23T06:39:56.488Z,11.74
2022-09-23T06:45:00.197Z,11.69
2022-09-23T06:50:03.171Z,11.61
2022-09-23T06:55:09.164Z,11.51
2022-09-23T07:00:13.550Z,11.66
2022-09-23T07:05:17.393Z,11.62
2022-09-23T07:10:21.804Z,11.74
2022-09-23T07:15:24.755Z,11.86
2022-09-23T07:20:27.673Z,11.92
2022-09-23T07:25:34.257Z,12.02
2022-09-23T07:30:38.753Z,12.01
2022-09-23T07:35:43.388Z,12.08
2022-09-23T07:40:47.797Z,12.24
2022-09-23T07:45:51.622Z,12.30
2022-09-23T07:50:55.074Z,12.33
2022-09-23T07:55:59.613Z,12.40
2022-09-23T08:01:04.669Z,12.52
2022-09-23T08:06:08.605Z,12.51
2022-09-23T08:11:14.304Z,12.72
2022-09-23T08:16:17.417Z,12.81
2022-09-23T08:21:21.202Z,12.88
2022-09-23T08:26:25.582Z,12.91
2022-09-23T08:31:28.613Z,13.22
2022-09-23T08:36:32.166Z,13.29
2022-09-23T08:41:40.400Z,13.44
2022-09-23T08:46:46.525Z,13.61
2022-09-23T08:51:50.902Z,13.77
2022-09-23T08:56:57.229Z,13.80
2022-09-23T09:02:01.550Z,13.86
2022-09-23T09:07:35.330Z,14.04
2022-09-23T09:12:42.505Z,14.05
2022-09-23T09:17:49.800Z,14.07
2022-09-23T09:22:57.751Z,14.33
2022-09-23T09:28:02.568Z,14.86
2022-09-23T09:33:08.086Z,14.93
2022-09-23T09:38:11.049Z,15.16
2022-09-23T09:43:23.245Z,15.33
2022-09-23T09:48:32.470Z,15.54
2022-09-23T09:53:35.855Z,15.47
2022-09-23T09:58:44.974Z,15.98
2022-09-23T10:03:48.201Z,16.66
2022-09-23T10:09:04.531Z,16.67
2022-09-23T10:14:13.672Z,16.68
2022-09-23T10:19:25.205Z,17.13
2022-09-23T10:24:30.995Z,17.48
2022-09-23T10:29:39.701Z,17.40
2022-09-23T10:34:45.053Z,17.86
2022-09-23T10:40:05.448Z,18.30
2022-09-23T10:45:41.068Z,18.62
2022-09-23T10:50:49.041Z,18.83
2022-09-23T10:56:05.625Z,19.42
2022-09-23T11:01:15.711Z,19.78
2022-09-23T11:06:25.115Z,20.11
2022-09-23T11:11:34.207Z,19.89
2022-09-23T11:16:45.636Z,20.05
2022-09-23T11:21:58.356Z,19.56
2022-09-23T11:27:06.756Z,19.55
2022-09-23T11:32:23.575Z,19.69
2022-09-23T11:37:28.907Z,19.05
2022-09-23T11:42:35.228Z,19.89
2022-09-23T11:47:44.056Z,20.36
2022-09-23T11:52:51.109Z,19.37
2022-09-23T11:57:55.434Z,19.30
2022-09-23T12:03:06.608Z,19.35
2022-09-23T12:08:16.195Z,19.63
2022-09-23T12:13:21.477Z,18.92
2022-09-23T12:18:36.022Z,20.22
2022-09-23T12:23:46.803Z,19.03
2022-09-23T12:28:50.898Z,18.50
2022-09-23T12:33:55.523Z,18.03
2022-09-23T12:39:03.267Z,19.10
2022-09-23T12:44:16.844Z,21.33
2022-09-23T12:49:26.232Z,20.32
2022-09-23T12:54:30.105Z,20.88
2022-09-23T12:59:34.635Z,20.42
2022-09-23T13:05:05.420Z,19.34
2022-09-23T13:10:12.275Z,18.59
2022-09-23T13:15:22.694Z,18.88
2022-09-23T13:20:38.494Z,19.19
2022-09-23T13:25:43.294Z,18.98
2022-09-23T13:30:49.777Z,18.68
2022-09-23T13:35:56.836Z,18.01
2022-09-23T13:41:01.195Z,18.35
2022-09-23T13:46:05.334Z,18.60
2022-09-23T13:51:11.264Z,18.87
2022-09-23T13:56:15.050Z,18.83
2022-09-23T14:01:23.785Z,18.77
2022-09-23T14:06:30.449Z,18.80
2022-09-23T14:11:35.501Z,18.75
2022-09-23T14:16:40.307Z,18.33
2022-09-23T14:21:44.815Z,17.89
2022-09-23T14:26:49.074Z,17.57
2022-09-23T14:31:57.251Z,17.38
2022-09-23T14:37:27.323Z,17.24
2022-09-23T14:42:38.523Z,17.18
2022-09-23T14:47:46.257Z,17.12
2022-09-23T14:52:53.646Z,17.00
2022-09-23T14:58:02.597Z,16.87
2022-09-23T15:03:12.790Z,16.79
2022-09-23T15:08:18.833Z,16.79
2022-09-23T15:13:23.327Z,16.71
2022-09-23T15:18:28.892Z,16.68
2022-09-23T15:23:34.665Z,16.65
2022-09-23T15:28:37.710Z,16.69
2022-09-23T15:33:40.786Z,16.66
2022-09-23T15:38:45.901Z,16.56
2022-09-23T15:43:48.961Z,16.38
2022-09-23T15:48:58.682Z,16.20
2022-09-23T15:54:03.957Z,16.14
2022-09-23T15:59:07.126Z,16.00
2022-09-23T16:04:11.253Z,15.99
2022-09-23T16:09:15.865Z,15.95
2022-09-23T16:14:19.725Z,15.91
2022-09-23T16:19:22.683Z,15.86
2022-09-23T16:24:28.448Z,15.72
2022-09-23T16:29:31.538Z,15.64
2022-09-23T16:34:34.947Z,15.53
2022-09-23T16:39:39.319Z,15.47
2022-09-23T16:44:42.649Z,15.36
2022-09-23T16:49:45.682Z,15.24
2022-09-23T16:54:50.649Z,15.15
2022-09-23T17:00:10.839Z,15.03
2022-09-23T17:05:17.184Z,14.92
2022-09-23T17:10:21.631Z,14.77
2022-09-23T17:15:24.605Z,14.67
2022-09-23T17:20:27.568Z,14.60
2022-09-23T17:25:32.299Z,14.46
2022-09-23T17:30:35.286Z,14.42
2022-09-23T17:35:40.987Z,14.46
2022-09-23T17:40:51.597Z,14.52
2022-09-23T17:45:55.530Z,14.52
2022-09-23T17:50:59.197Z,14.54
2022-09-23T17:56:05.403Z,14.65
2022-09-23T18:01:10.124Z,14.65
2022-09-23T18:06:14.033Z,14.71
2022-09-23T18:11:19.937Z,14.73
2022-09-23T18:16:24.781Z,14.76
2022-09-23T18:21:29.466Z,14.81
2022-09-23T18:26:34.505Z,14.79
2022-09-23T18:31:38.400Z,14.79
2022-09-23T18:36:41.455Z,14.80
2022-09-23T18:41:46.255Z,14.79
2022-09-23T18:46:49.668Z,14.73
2022-09-23T18:51:54.623Z,14.71
2022-09-23T18:57:01.287Z,14.68
2022-09-23T19:02:04.581Z,14.67
2022-09-23T19:07:08.230Z,14.61
2022-09-23T19:12:13.215Z,14.61
2022-09-23T19:17:16.351Z,14.66
2022-09-23T19:22:22.435Z,14.65
2022-09-23T19:27:26.707Z,14.63
2022-09-23T19:32:30.117Z,14.48
2022-09-23T19:37:33.516Z,14.39
2022-09-23T19:42:38.250Z,14.52
2022-09-23T19:47:41.432Z,14.55
2022-09-23T19:52:44.609Z,14.60
2022-09-23T19:57:49.352Z,14.55
2022-09-23T20:02:52.713Z,14.49
2022-09-23T20:07:55.995Z,14.44
2022-09-23T20:13:00.602Z,14.38
2022-09-23T20:18:03.671Z,14.31
2022-09-23T20:23:06.762Z,14.08
2022-09-23T20:28:11.139Z,13.96
2022-09-23T20:33:15.223Z,13.91
2022-09-23T20:38:18.210Z,14.00
2022-09-23T20:43:22.638Z,13.96
2022-09-23T20:48:25.647Z,13.94
2022-09-23T20:53:28.651Z,13.91
2022-09-23T20:58:36.576Z,13.80
2022-09-23T21:03:40.381Z,13.74
2022-09-23T21:08:44.491Z,13.68
2022-09-23T21:13:49.782Z,13.61
2022-09-23T21:18:52.903Z,13.49
2022-09-23T21:24:07.080Z,13.41
2022-09-23T21:29:20.082Z,13.35
2022-09-23T21:34:26.066Z,13.32
2022-09-23T21:39:29.012Z,13.18
2022-09-23T21:44:33.373Z,13.16
2022-09-23T21:49:36.819Z,13.18
2022-09-23T21:54:40.082Z,13.17
2022-09-23T21:59:44.427Z,13.16
2022-09-23T22:04:47.382Z,13.18
2022-09-23T22:09:50.417Z,13.05
2022-09-23T22:14:55.127Z,13.06
2022-09-23T22:19:58.546Z,13.02
2022-09-23T22:25:01.580Z,13.05
2022-09-23T22:30:24.261Z,12.99
2022-09-23T22:35:27.177Z,12.96
2022-09-23T22:40:30.202Z,12.88
2022-09-23T22:45:34.925Z,12.80
2022-09-23T22:50:39.856Z,12.74
2022-09-23T22:55:43.191Z,12.65
2022-09-23T23:00:47.618Z,12.60
2022-09-23T23:05:50.630Z,12.54
2022-09-23T23:10:55.000Z,12.51
2022-09-23T23:16:04.782Z,12.44
2022-09-23T23:21:08.627Z,12.40
2022-09-23T23:26:13.079Z,12.37
2022-09-23T23:31:18.878Z,12.33
2022-09-23T23:36:22.746Z,12.06
2022-09-23T23:41:25.973Z,12.06
2022-09-23T23:46:31.733Z,12.02
2022-09-23T23:51:34.773Z,12.12
2022-09-23T23:56:37.862Z,12.15
